Home   Weather   USA   Winder   Past weeks
Flag for USA

Past Weather in Winder, Georgia, USA — Yesterday and Last 2 Weeks

Currently: 59 °F. Clear. (Weather station: Winder-Barrow Airport, USA). See more current weather

Past Weather in Winder — Graph

°F

Winder Temperature Yesterday

Maximum temperature yesterday: 81 °F (at 2:35 pm)
Minimum temperature yesterday: 61 °F (at 6:55 am)
Average temperature yesterday: 70 °F

High & Low Weather Summary for the Past Weeks

 TemperatureHumidityPressure
High91 °F (Sep 22, 1:15 pm)100% (Sep 12, 12:15 am)30.27 "Hg (Sep 12, 12:15 am)
Low50 °F (Sep 24, 6:15 am)22% (Sep 23, 3:15 pm)29.85 "Hg (Sep 22, 3:35 pm)
Average71 °F67%30.06 "Hg
* Reported Sep 12 12:15 am — Sep 27 12:15 am, Winder. Weather by CustomWeather, © 2022

Note: Actual official high and low records may vary slightly from our data, if they occured in-between our weather recording intervals... More about our weather records

Winder Weather History for the Previous 24 Hours

Scroll right to see more
 ConditionsComfort  
Time TempWeatherWind HumidityBarometerVisibility
12:15 am
Tue, Sep 27
61 °FClear.8 mph59%30.02 "Hg10 mi
11:55 pm
Mon, Sep 26
63 °FClear.7 mph56%30.01 "Hg10 mi
11:35 pm63 °FClear.7 mph56%30.00 "Hg10 mi
11:15 pm63 °FClear.6 mph56%30.00 "Hg10 mi
10:35 pm64 °FClear.6 mph52%29.99 "Hg10 mi
9:35 pm64 °FClear.6 mph52%29.97 "Hg10 mi
8:55 pm66 °FClear.5 mph46%29.97 "Hg10 mi
7:35 pm70 °FClear.6 mph40%29.93 "Hg10 mi
7:15 pm72 °FSunny.6 mph36%29.93 "Hg10 mi
6:15 pm77 °FSunny.8 mph30%29.92 "Hg10 mi
5:55 pm77 °FSunny.12 mph30%29.92 "Hg10 mi
5:15 pm79 °FSunny.14 mph28%29.92 "Hg10 mi
4:55 pm79 °FSunny.13 mph28%29.91 "Hg10 mi
4:15 pm79 °FSunny.12 mph26%29.91 "Hg10 mi
3:15 pm79 °FSunny.14 mph23%29.91 "Hg10 mi
2:55 pm79 °FSunny.14 mph26%29.92 "Hg10 mi
2:35 pm81 °FSunny.14 mph24%29.93 "Hg10 mi
2:15 pm79 °FSunny.13 mph26%29.94 "Hg10 mi
1:55 pm79 °FSunny.10 mph30%29.95 "Hg10 mi
1:35 pm79 °FSunny.13 mph30%29.96 "Hg10 mi
12:55 pm77 °FSunny.8 mph32%29.97 "Hg10 mi
12:15 pm77 °FSunny.9 mph32%29.98 "Hg10 mi
11:55 am77 °FSunny.12 mph32%29.99 "Hg10 mi
11:35 am75 °FSunny.9 mph39%29.99 "Hg10 mi
11:15 am73 °FSunny.12 mph41%29.99 "Hg10 mi
10:35 am73 °FSunny.12 mph41%29.99 "Hg10 mi
10:15 am73 °FSunny.9 mph44%29.99 "Hg10 mi
8:55 am68 °FSunny.5 mph64%29.97 "Hg10 mi
8:15 am64 °FSunny.5 mph88%29.96 "Hg10 mi
7:55 am63 °FSunny.6 mph94%29.96 "Hg10 mi
7:35 am63 °FSunny.6 mph94%29.95 "Hg10 mi
7:15 am61 °FClear.6 mph100%29.94 "Hg10 mi
6:55 am61 °FClear.5 mph100%29.94 "Hg10 mi
6:15 am63 °FClear.3 mph94%29.93 "Hg10 mi
5:55 am63 °FClear.5 mph100%29.93 "Hg10 mi
5:35 am63 °FClear.5 mph100%29.93 "Hg10 mi
5:15 am63 °FClear.3 mph100%29.92 "Hg10 mi
4:15 am64 °FClear.No wind94%29.92 "Hg10 mi
2:55 am66 °FPassing clouds.No wind88%29.93 "Hg10 mi
2:15 am64 °FClear.No wind94%29.93 "Hg10 mi
Weather by CustomWeather, © 2022

See weather overview